Time;durP1;ratioP1;P1;durP2;ratioP2;P2;SDS_P1;SDS_P2;PMS_P1;PMS_P2;Temp;Humidity;BMP_temperature;BMP_pressure;BME280_temperature;BME280_humidity;BME280_pressure;Samples;Min_cycle;Max_cycle;Signal;HPM_P1;HPM_P2
2021/08/13 00:02:11;;;;;;;2.95;2.75;;;24.60;99.90;;;;;;5021568;28;20234;-86
2021/08/13 00:04:39;;;;;;;3.20;3.00;;;24.60;99.90;;;;;;5023387;28;20273;-84
2021/08/13 00:07:08;;;;;;;3.90;3.25;;;24.50;99.90;;;;;;5022222;28;20224;-85
2021/08/13 00:09:35;;;;;;;4.05;3.67;;;24.50;99.90;;;;;;5021479;28;20279;-86
2021/08/13 00:12:02;;;;;;;3.35;3.08;;;24.40;99.90;;;;;;5023357;28;20719;-85
2021/08/13 00:14:29;;;;;;;3.60;3.30;;;24.40;99.90;;;;;;5021134;28;20273;-84
2021/08/13 00:16:56;;;;;;;3.47;3.17;;;24.40;99.90;;;;;;5021858;28;20657;-83
2021/08/13 00:19:23;;;;;;;3.55;3.22;;;24.40;99.90;;;;;;5017928;28;20239;-85
2021/08/13 00:21:52;;;;;;;4.22;3.58;;;24.40;99.90;;;;;;5018328;28;20713;-85
2021/08/13 00:24:21;;;;;;;3.50;3.20;;;24.30;99.90;;;;;;5008577;28;20224;-85
2021/08/13 00:26:48;;;;;;;3.78;3.47;;;24.40;99.90;;;;;;5025506;28;20691;-84
2021/08/13 00:29:15;;;;;;;3.35;3.15;;;24.30;99.90;;;;;;5023269;28;20231;-86
2021/08/13 00:31:42;;;;;;;3.45;3.15;;;24.30;99.90;;;;;;5017396;28;20767;-85
2021/08/13 00:34:10;;;;;;;3.63;3.38;;;24.20;99.90;;;;;;5022463;28;20223;-84
2021/08/13 00:36:37;;;;;;;3.97;3.03;;;24.30;99.90;;;;;;5020082;28;20700;-83
2021/08/13 00:39:04;;;;;;;3.22;3.03;;;24.30;99.90;;;;;;5019190;28;20647;-81
2021/08/13 00:41:33;;;;;;;3.38;3.13;;;24.30;99.90;;;;;;5021758;28;20370;-84
2021/08/13 00:44:00;;;;;;;3.28;3.08;;;24.30;99.90;;;;;;5020835;28;20246;-83
2021/08/13 00:46:27;;;;;;;3.40;3.15;;;24.20;99.90;;;;;;5022648;28;20227;-84
2021/08/13 00:48:54;;;;;;;3.30;3.00;;;24.30;99.90;;;;;;5022359;28;20284;-84
2021/08/13 00:51:22;;;;;;;4.00;3.28;;;24.20;99.90;;;;;;5019720;28;20771;-86
2021/08/13 00:53:49;;;;;;;3.50;3.22;;;24.20;99.90;;;;;;5021533;28;20281;-85
2021/08/13 00:56:17;;;;;;;3.55;3.25;;;24.20;99.90;;;;;;5021768;28;20604;-84
2021/08/13 00:58:45;;;;;;;3.40;3.10;;;24.20;99.90;;;;;;5023335;28;20276;-83
2021/08/13 01:01:13;;;;;;;3.45;3.15;;;24.20;99.90;;;;;;5021074;28;20230;-85
2021/08/13 01:03:40;;;;;;;5.03;3.25;;;24.20;99.90;;;;;;5018645;28;20713;-84
2021/08/13 01:06:08;;;;;;;3.45;3.20;;;24.10;99.90;;;;;;5019136;28;20223;-83
2021/08/13 01:08:35;;;;;;;3.95;3.55;;;24.10;99.90;;;;;;5003072;28;20234;-84
2021/08/13 01:11:11;;;;;;;3.50;3.20;;;24.10;99.90;;;;;;5023074;28;20223;-83
2021/08/13 01:13:44;;;;;;;3.70;3.40;;;24.10;99.90;;;;;;5018439;28;20242;-85
2021/08/13 01:16:17;;;;;;;3.50;3.22;;;24.10;99.90;;;;;;5021527;28;20278;-85
2021/08/13 01:18:49;;;;;;;3.45;3.17;;;24.10;99.90;;;;;;5017793;28;20228;-85
2021/08/13 01:21:27;;;;;;;3.47;3.17;;;24.00;99.90;;;;;;5022306;28;20635;-85
2021/08/13 01:23:56;;;;;;;3.53;3.22;;;24.00;99.90;;;;;;5024095;28;20295;-83
2021/08/13 01:26:26;;;;;;;3.35;3.15;;;24.00;99.90;;;;;;5017822;28;20269;-85
2021/08/13 01:29:04;;;;;;;3.63;3.33;;;24.00;99.90;;;;;;5014292;28;20293;-84
2021/08/13 01:31:43;;;;;;;3.42;3.13;;;24.00;99.90;;;;;;5019031;28;21035;-84
2021/08/13 01:34:15;;;;;;;3.42;3.13;;;24.00;99.90;;;;;;5021723;28;20292;-85
2021/08/13 01:36:44;;;;;;;3.42;3.13;;;24.00;99.90;;;;;;5016596;28;20224;-85
2021/08/13 01:39:11;;;;;;;3.22;3.03;;;23.90;99.90;;;;;;5018921;28;20239;-82
2021/08/13 01:41:39;;;;;;;3.60;3.30;;;23.90;99.90;;;;;;5020618;28;20223;-84
2021/08/13 01:44:09;;;;;;;3.65;3.35;;;23.80;99.90;;;;;;5020988;28;20223;-85
2021/08/13 01:46:37;;;;;;;4.18;3.72;;;23.70;99.90;;;;;;5019017;28;20223;-84
2021/08/13 01:49:04;;;;;;;3.88;3.58;;;23.80;99.90;;;;;;5018824;28;20227;-81
2021/08/13 01:51:34;;;;;;;3.97;3.60;;;23.70;99.90;;;;;;5018557;28;20284;-83
2021/08/13 01:54:03;;;;;;;3.95;3.53;;;23.70;99.90;;;;;;5020862;28;20732;-83
2021/08/13 01:56:31;;;;;;;3.30;3.10;;;23.70;99.90;;;;;;5023511;28;20230;-84
2021/08/13 01:59:00;;;;;;;3.75;3.45;;;23.60;99.90;;;;;;5021602;28;20223;-84
2021/08/13 02:01:30;;;;;;;4.00;3.65;;;23.70;99.90;;;;;;5019649;28;20235;-84
2021/08/13 02:03:57;;;;;;;4.18;3.40;;;23.60;99.90;;;;;;5016805;28;20697;-83
2021/08/13 02:06:27;;;;;;;4.22;3.85;;;23.60;99.90;;;;;;5017381;28;20275;-83
2021/08/13 02:08:56;;;;;;;4.25;3.95;;;23.60;99.90;;;;;;5019878;28;20235;-83
2021/08/13 02:11:24;;;;;;;3.80;3.50;;;23.50;99.90;;;;;;5015147;28;20838;-83
2021/08/13 02:13:51;;;;;;;3.80;3.22;;;23.50;99.90;;;;;;5017283;28;20223;-84
2021/08/13 02:16:26;;;;;;;4.80;3.95;;;23.50;99.90;;;;;;5017736;28;20212;-85
2021/08/13 02:19:00;;;;;;;3.85;3.55;;;23.50;99.90;;;;;;5014445;28;20218;-84
2021/08/13 02:21:30;;;;;;;3.97;3.67;;;23.50;99.90;;;;;;5017044;28;20690;-83
2021/08/13 02:23:59;;;;;;;4.78;3.67;;;23.50;99.90;;;;;;5016269;28;20231;-84
2021/08/13 02:26:26;;;;;;;3.95;3.65;;;23.50;99.90;;;;;;5016338;28;20641;-83
2021/08/13 02:28:53;;;;;;;4.05;3.70;;;23.50;99.90;;;;;;5018886;28;20224;-83
2021/08/13 02:31:20;;;;;;;4.22;3.90;;;23.50;99.90;;;;;;5015328;28;20227;-84
2021/08/13 02:33:47;;;;;;;3.88;3.58;;;23.50;99.90;;;;;;5018020;28;20228;-83
2021/08/13 02:36:17;;;;;;;4.25;3.90;;;23.40;99.90;;;;;;5015943;28;20231;-83
2021/08/13 02:38:54;;;;;;;4.10;3.58;;;23.40;99.90;;;;;;5017314;28;20267;-83
2021/08/13 02:41:24;;;;;;;3.78;3.47;;;23.40;99.90;;;;;;5015601;28;20645;-83
2021/08/13 02:43:55;;;;;;;4.30;4.00;;;23.40;99.90;;;;;;5022956;28;20284;-82
2021/08/13 02:46:23;;;;;;;4.70;4.03;;;23.40;99.90;;;;;;5019049;28;20230;-82
2021/08/13 02:48:54;;;;;;;4.05;3.75;;;23.40;99.90;;;;;;5019389;28;20793;-82
2021/08/13 02:51:26;;;;;;;3.88;3.58;;;23.40;99.90;;;;;;5018096;28;20227;-81
2021/08/13 03:03:44;;;;;;;4.50;3.47;;;23.10;99.90;;;;;;5022749;28;20247;-77
2021/08/13 03:06:13;;;;;;;3.75;3.47;;;23.00;99.90;;;;;;5021173;28;20231;-77
2021/08/13 03:08:41;;;;;;;3.85;3.55;;;22.90;99.90;;;;;;5022048;28;20298;-76
2021/08/13 03:11:11;;;;;;;4.35;4.03;;;22.80;99.90;;;;;;5020242;28;20227;-76
2021/08/13 03:13:39;;;;;;;3.83;3.53;;;22.70;99.90;;;;;;5021921;28;20246;-76
2021/08/13 03:16:07;;;;;;;3.80;3.50;;;22.60;99.90;;;;;;5019975;28;20705;-76
2021/08/13 03:18:34;;;;;;;4.38;3.97;;;22.60;99.90;;;;;;5024225;28;20223;-77
2021/08/13 03:21:03;;;;;;;4.00;3.70;;;22.50;99.90;;;;;;5024444;28;20231;-77
2021/08/13 03:23:30;;;;;;;4.45;4.05;;;22.50;99.90;;;;;;5023409;28;20284;-77
2021/08/13 03:25:58;;;;;;;4.15;3.75;;;22.50;99.90;;;;;;5026978;28;20227;-77
2021/08/13 03:28:25;;;;;;;3.90;3.60;;;22.50;99.90;;;;;;5023818;28;20281;-76
2021/08/13 03:30:52;;;;;;;4.07;3.78;;;22.50;99.90;;;;;;5028871;28;20219;-77
2021/08/13 03:33:20;;;;;;;3.80;3.50;;;22.50;99.90;;;;;;5026198;28;20752;-77
2021/08/13 03:35:49;;;;;;;4.32;4.00;;;22.30;99.90;;;;;;5025842;28;21130;-77
2021/08/13 03:38:17;;;;;;;4.38;3.97;;;22.30;99.90;;;;;;5022356;28;20264;-77
2021/08/13 03:40:44;;;;;;;3.92;3.63;;;22.30;99.90;;;;;;5029828;28;20269;-76
2021/08/13 03:43:11;;;;;;;3.40;3.20;;;22.30;99.90;;;;;;5029627;28;20243;-76
2021/08/13 03:45:38;;;;;;;3.83;3.53;;;22.20;99.90;;;;;;5027436;28;20571;-76
2021/08/13 03:48:06;;;;;;;4.40;4.00;;;22.20;99.90;;;;;;5027931;28;20665;-77
2021/08/13 03:50:33;;;;;;;4.47;3.90;;;22.20;99.90;;;;;;5027064;28;20710;-77
2021/08/13 03:53:00;;;;;;;4.15;3.85;;;22.20;99.90;;;;;;5025615;28;20239;-76
2021/08/13 03:55:29;;;;;;;4.07;3.67;;;22.20;99.90;;;;;;5026940;28;20223;-76
2021/08/13 03:57:56;;;;;;;4.50;4.10;;;22.10;99.90;;;;;;5026951;28;20230;-75
2021/08/13 04:00:23;;;;;;;4.10;3.80;;;22.10;99.90;;;;;;5025595;28;20227;-76
2021/08/13 04:02:50;;;;;;;4.80;4.30;;;22.10;99.90;;;;;;5026843;28;20653;-76
2021/08/13 04:05:17;;;;;;;4.50;4.05;;;22.10;99.90;;;;;;5027025;28;20256;-76
2021/08/13 04:07:44;;;;;;;4.25;3.85;;;22.10;99.90;;;;;;5025524;28;20228;-76
2021/08/13 04:10:11;;;;;;;4.57;4.18;;;22.00;99.90;;;;;;5024396;28;20286;-77
2021/08/13 04:12:40;;;;;;;4.15;3.83;;;22.00;99.90;;;;;;5025797;28;20277;-77
2021/08/13 04:15:07;;;;;;;4.38;3.97;;;22.00;99.90;;;;;;5022330;28;20714;-76
2021/08/13 04:17:34;;;;;;;4.18;3.78;;;21.90;99.90;;;;;;5024015;28;20227;-77
2021/08/13 04:20:01;;;;;;;4.40;4.10;;;22.00;99.90;;;;;;5028919;28;20231;-77
2021/08/13 04:22:28;;;;;;;3.78;3.47;;;22.00;99.90;;;;;;5027002;28;20234;-77
2021/08/13 04:24:55;;;;;;;3.90;3.60;;;22.00;99.90;;;;;;5024922;28;20227;-76
2021/08/13 04:27:22;;;;;;;4.07;3.75;;;22.00;99.90;;;;;;5026730;28;20277;-76
2021/08/13 04:29:51;;;;;;;3.85;3.55;;;22.00;99.90;;;;;;5028387;28;20216;-76
2021/08/13 04:32:19;;;;;;;4.10;3.80;;;22.00;99.90;;;;;;5024714;28;21650;-76
2021/08/13 04:34:46;;;;;;;4.22;3.92;;;22.10;99.90;;;;;;5022758;28;20246;-77
2021/08/13 04:37:13;;;;;;;4.43;4.03;;;22.10;99.90;;;;;;5018290;28;20251;-75
2021/08/13 04:39:40;;;;;;;4.80;4.43;;;22.10;99.90;;;;;;5021315;28;20224;-76
2021/08/13 04:42:07;;;;;;;4.45;4.05;;;22.10;99.90;;;;;;5019918;28;20278;-76
2021/08/13 04:44:34;;;;;;;4.85;3.95;;;22.10;99.90;;;;;;5018839;28;20230;-76
2021/08/13 04:47:02;;;;;;;3.97;3.67;;;22.20;99.90;;;;;;5032810;28;20224;-76
2021/08/13 04:49:30;;;;;;;5.03;4.55;;;22.20;99.90;;;;;;5023992;28;20732;-75
2021/08/13 04:51:58;;;;;;;4.13;3.80;;;22.20;99.90;;;;;;5023299;28;20580;-76
2021/08/13 04:54:25;;;;;;;4.40;4.10;;;22.30;99.90;;;;;;5026147;28;20255;-75
2021/08/13 04:56:52;;;;;;;4.13;3.83;;;22.30;99.90;;;;;;5024247;28;20231;-76
2021/08/13 04:59:19;;;;;;;4.15;3.85;;;22.40;99.90;;;;;;5024842;28;20775;-77
2021/08/13 05:01:46;;;;;;;4.20;3.90;;;22.40;99.90;;;;;;5025113;28;20925;-76
2021/08/13 05:04:14;;;;;;;4.68;3.95;;;22.50;99.90;;;;;;5027728;28;20235;-76
2021/08/13 05:06:41;;;;;;;3.80;3.60;;;22.60;99.90;;;;;;5025897;28;20231;-76
2021/08/13 05:09:08;;;;;;;5.03;4.53;;;22.70;99.90;;;;;;5025780;28;20219;-76
2021/08/13 05:11:35;;;;;;;4.50;4.10;;;22.80;99.90;;;;;;5025876;28;20227;-76
2021/08/13 05:14:03;;;;;;;4.22;3.92;;;22.90;99.90;;;;;;5026147;28;20274;-76
2021/08/13 05:16:30;;;;;;;4.78;4.28;;;23.00;99.90;;;;;;5029285;28;20215;-76
2021/08/13 05:18:57;;;;;;;4.70;4.30;;;23.20;99.90;;;;;;5025796;28;20717;-76
2021/08/13 05:21:26;;;;;;;4.32;4.03;;;23.40;99.90;;;;;;5025150;28;20285;-76
2021/08/13 05:23:53;;;;;;;4.18;3.88;;;23.60;99.90;;;;;;5022249;28;20224;-76
2021/08/13 05:26:20;;;;;;;4.43;4.03;;;23.70;99.90;;;;;;5026419;28;20659;-76
2021/08/13 05:28:47;;;;;;;5.00;4.60;;;23.80;99.90;;;;;;5026879;28;20223;-76
2021/08/13 05:31:14;;;;;;;4.85;4.45;;;23.90;99.90;;;;;;5024876;28;20273;-76
2021/08/13 05:33:41;;;;;;;5.30;4.80;;;23.90;99.90;;;;;;5025127;28;20285;-76
2021/08/13 05:36:08;;;;;;;5.38;4.97;;;23.90;99.90;;;;;;5027710;28;20231;-77
2021/08/13 05:38:37;;;;;;;4.70;4.30;;;23.80;99.90;;;;;;5031217;28;20246;-76
2021/08/13 05:41:04;;;;;;;4.78;4.40;;;23.60;99.90;;;;;;5023529;28;20220;-76
2021/08/13 05:43:31;;;;;;;4.63;4.22;;;23.60;99.90;;;;;;5024367;28;20701;-76
2021/08/13 05:45:58;;;;;;;4.90;4.50;;;23.50;99.90;;;;;;5026026;28;20281;-76
2021/08/13 05:48:25;;;;;;;4.60;4.30;;;23.60;99.90;;;;;;5025302;28;20227;-76
2021/08/13 05:50:52;;;;;;;4.45;4.13;;;23.60;99.90;;;;;;5024300;28;20242;-76
2021/08/13 05:53:19;;;;;;;4.60;4.30;;;23.70;99.90;;;;;;5025307;28;20227;-76
2021/08/13 05:55:47;;;;;;;5.13;4.72;;;23.70;99.90;;;;;;5023723;28;20234;-76
2021/08/13 05:58:14;;;;;;;5.00;4.60;;;23.60;99.90;;;;;;5022540;28;20227;-77
2021/08/13 06:00:42;;;;;;;5.47;4.97;;;23.50;99.90;;;;;;5023924;28;20590;-76
2021/08/13 06:03:09;;;;;;;5.22;4.75;;;23.50;99.90;;;;;;5029902;28;20222;-76
2021/08/13 06:05:36;;;;;;;5.57;5.07;;;23.50;99.90;;;;;;5024679;28;20231;-76
2021/08/13 06:08:03;;;;;;;5.68;5.18;;;23.40;99.90;;;;;;5025175;28;20216;-77
2021/08/13 06:10:30;;;;;;;6.50;5.45;;;23.50;99.90;;;;;;5025914;28;20219;-76
2021/08/13 06:12:58;;;;;;;6.57;5.35;;;23.50;99.90;;;;;;5023384;28;20235;-76
2021/08/13 06:15:25;;;;;;;5.15;4.65;;;23.50;99.90;;;;;;5026069;28;20281;-76
2021/08/13 06:17:52;;;;;;;5.55;5.03;;;23.50;99.90;;;;;;5018136;28;20648;-76
2021/08/13 06:20:21;;;;;;;5.40;5.00;;;23.70;99.90;;;;;;5025425;28;20223;-76
2021/08/13 06:22:49;;;;;;;5.75;5.30;;;23.80;99.90;;;;;;5066347;22;20227;-68
2021/08/13 06:25:16;;;;;;;6.05;5.55;;;23.80;99.90;;;;;;5063549;28;20236;-69
2021/08/13 06:27:44;;;;;;;6.07;5.57;;;23.70;99.90;;;;;;5066941;28;20276;-69
2021/08/13 06:30:18;;;;;;;7.13;5.85;;;23.80;99.90;;;;;;5063186;28;20388;-68
2021/08/13 06:32:45;;;;;;;7.10;6.40;;;24.00;99.90;;;;;;5064854;28;20222;-68
2021/08/13 06:35:12;;;;;;;6.60;6.00;;;24.10;99.90;;;;;;5063515;28;20230;-68
2021/08/13 06:37:47;;;;;;;6.70;6.03;;;24.10;99.90;;;;;;5065689;28;20217;-69
2021/08/13 06:40:14;;;;;;;6.20;5.65;;;24.10;99.90;;;;;;5062832;28;20240;-69
2021/08/13 06:42:41;;;;;;;5.75;5.25;;;24.10;99.90;;;;;;5063916;28;20698;-69
2021/08/13 06:45:10;;;;;;;6.20;5.70;;;24.20;99.90;;;;;;5060577;28;20726;-69
2021/08/13 06:47:38;;;;;;;5.80;5.25;;;24.30;99.90;;;;;;5058895;28;20225;-69
2021/08/13 06:50:06;;;;;;;6.20;5.70;;;24.30;99.90;;;;;;5052264;28;20222;-70
2021/08/13 06:52:34;;;;;;;6.43;5.82;;;24.60;99.90;;;;;;5053562;28;20229;-69
2021/08/13 06:55:01;;;;;;;5.95;5.38;;;24.90;99.90;;;;;;5056658;28;20229;-70
2021/08/13 06:57:28;;;;;;;6.22;5.63;;;24.90;99.90;;;;;;5058056;28;20278;-70
2021/08/13 06:59:55;;;;;;;6.43;5.82;;;24.90;99.90;;;;;;5052025;28;20279;-69
2021/08/13 07:02:23;;;;;;;6.28;5.68;;;24.80;99.90;;;;;;5053664;28;20226;-70
2021/08/13 07:04:51;;;;;;;6.35;5.80;;;24.70;99.90;;;;;;5052186;28;20234;-70
2021/08/13 07:07:18;;;;;;;7.00;6.30;;;24.70;99.90;;;;;;5053221;28;20241;-70
2021/08/13 07:09:47;;;;;;;7.65;6.72;;;25.00;99.90;;;;;;5056564;28;20230;-70
2021/08/13 07:12:15;;;;;;;6.38;5.78;;;25.30;99.90;;;;;;5057068;28;20225;-70
2021/08/13 07:14:42;;;;;;;6.47;5.93;;;25.60;99.90;;;;;;5054274;28;20226;-70
2021/08/13 07:17:10;;;;;;;6.97;6.15;;;25.90;99.90;;;;;;5056352;28;20362;-69
2021/08/13 07:19:37;;;;;;;6.60;6.00;;;26.00;99.90;;;;;;5052053;28;20226;-70
2021/08/13 07:22:05;;;;;;;6.90;6.30;;;26.10;99.90;;;;;;5054252;28;20576;-69
2021/08/13 07:24:32;;;;;;;6.18;5.68;;;26.40;99.90;;;;;;5055097;28;20287;-68
2021/08/13 07:27:00;;;;;;;7.38;6.68;;;26.80;99.90;;;;;;5056020;28;20221;-70
2021/08/13 07:29:27;;;;;;;6.43;5.93;;;26.80;99.90;;;;;;5054412;28;20664;-69
2021/08/13 07:31:55;;;;;;;7.38;6.68;;;26.80;99.90;;;;;;5049092;28;20225;-70
2021/08/13 07:34:23;;;;;;;7.93;7.03;;;26.90;99.90;;;;;;5051579;28;20226;-69
2021/08/13 07:36:50;;;;;;;7.55;6.75;;;27.00;99.90;;;;;;5049897;28;20748;-69
2021/08/13 07:39:19;;;;;;;6.63;6.13;;;27.10;99.90;;;;;;5051464;28;20527;-69
2021/08/13 07:41:46;;;;;;;7.10;6.40;;;27.20;99.90;;;;;;5049451;28;20226;-71
2021/08/13 07:44:13;;;;;;;6.88;5.85;;;27.30;99.90;;;;;;5051186;28;20712;-70
2021/08/13 07:46:41;;;;;;;7.60;6.85;;;27.50;99.90;;;;;;5051620;28;20685;-70
2021/08/13 07:49:08;;;;;;;7.22;6.63;;;27.80;99.90;;;;;;5054082;28;20222;-70
2021/08/13 07:51:41;;;;;;;7.32;6.63;;;27.80;99.90;;;;;;5052919;28;20773;-70
2021/08/13 07:54:08;;;;;;;6.97;6.35;;;27.50;99.90;;;;;;5053118;28;20233;-70
2021/08/13 07:56:37;;;;;;;7.30;6.70;;;27.40;99.90;;;;;;5054370;28;20222;-70
2021/08/13 07:59:04;;;;;;;8.95;7.53;;;27.50;99.90;;;;;;5056436;28;20303;-70
2021/08/13 08:01:31;;;;;;;8.27;6.78;;;27.50;99.90;;;;;;5054025;28;20601;-70
2021/08/13 08:03:58;;;;;;;7.65;6.80;;;27.40;99.90;;;;;;5050244;28;20222;-70
2021/08/13 08:06:28;;;;;;;6.93;6.32;;;27.50;99.90;;;;;;5054055;28;20222;-71
2021/08/13 08:08:55;;;;;;;7.60;6.82;;;27.70;99.90;;;;;;5052648;28;20309;-68
2021/08/13 08:11:22;;;;;;;16.48;6.78;;;28.00;99.90;;;;;;5056406;28;20226;-70
2021/08/13 08:13:51;;;;;;;6.68;6.07;;;27.90;99.90;;;;;;5054740;28;20226;-74
2021/08/13 08:16:18;;;;;;;6.80;6.28;;;28.00;99.90;;;;;;5062866;28;20238;-72
2021/08/13 08:18:45;;;;;;;7.82;6.88;;;28.30;99.90;;;;;;5051184;28;20452;-70
2021/08/13 08:21:12;;;;;;;8.38;6.55;;;28.40;99.90;;;;;;5057953;28;20275;-72
2021/08/13 08:23:39;;;;;;;7.10;6.50;;;28.50;99.90;;;;;;5053879;28;20228;-71
2021/08/13 08:26:06;;;;;;;7.55;6.95;;;28.50;99.90;;;;;;5054486;28;20222;-72
2021/08/13 08:28:33;;;;;;;7.75;7.10;;;28.70;99.90;;;;;;5054290;28;20230;-72
2021/08/13 08:31:01;;;;;;;6.75;6.15;;;28.80;99.90;;;;;;5058519;28;20221;-73
2021/08/13 08:33:30;;;;;;;7.20;6.60;;;28.80;99.90;;;;;;5056385;28;20507;-72
2021/08/13 08:35:57;;;;;;;7.45;6.75;;;28.90;99.90;;;;;;5050469;28;20257;-73
2021/08/13 08:38:24;;;;;;;7.45;6.75;;;29.00;99.90;;;;;;5055354;28;21234;-73
2021/08/13 08:40:52;;;;;;;7.32;6.53;;;29.20;99.90;;;;;;5053438;28;20218;-73
2021/08/13 08:43:19;;;;;;;9.57;7.30;;;29.40;99.90;;;;;;5058125;28;20538;-73
2021/08/13 08:45:46;;;;;;;7.43;6.78;;;29.60;99.90;;;;;;5054352;28;20222;-72
2021/08/13 08:48:16;;;;;;;9.52;7.35;;;29.60;99.90;;;;;;5048473;28;20489;-73
2021/08/13 08:50:44;;;;;;;7.78;7.07;;;29.50;99.90;;;;;;5056710;28;20276;-73
2021/08/13 08:53:16;;;;;;;7.28;6.57;;;29.60;99.90;;;;;;5052153;28;20218;-73
2021/08/13 08:55:43;;;;;;;8.63;7.72;;;29.50;99.90;;;;;;5054134;28;20233;-72
2021/08/13 08:58:11;;;;;;;7.28;6.55;;;29.60;99.90;;;;;;5050455;28;20276;-73
2021/08/13 09:00:38;;;;;;;7.97;7.20;;;29.70;99.90;;;;;;5053538;28;20222;-72
2021/08/13 09:03:07;;;;;;;8.40;7.70;;;29.90;99.90;;;;;;5050088;28;20300;-71
2021/08/13 09:05:35;;;;;;;8.15;7.35;;;29.80;99.90;;;;;;5054660;28;20641;-73
2021/08/13 09:08:02;;;;;;;9.20;7.47;;;29.80;99.90;;;;;;5048470;28;20303;-72
2021/08/13 09:10:29;;;;;;;8.38;7.60;;;30.00;99.90;;;;;;5052879;28;20229;-73
2021/08/13 09:12:56;;;;;;;7.38;6.68;;;30.00;99.90;;;;;;5049996;28;20232;-71
2021/08/13 09:15:31;;;;;;;7.07;6.47;;;30.10;99.90;;;;;;5054141;28;20763;-72
2021/08/13 09:18:12;;;;;;;8.50;7.63;;;30.30;99.90;;;;;;5052071;28;20217;-71
2021/08/13 09:20:42;;;;;;;7.18;6.47;;;30.30;99.90;;;;;;5051867;28;20246;-73
2021/08/13 09:23:10;;;;;;;7.70;7.00;;;30.30;99.90;;;;;;5050805;28;20226;-73
2021/08/13 09:25:37;;;;;;;7.18;6.53;;;30.30;99.90;;;;;;5047666;28;20242;-73
2021/08/13 09:28:04;;;;;;;7.95;7.25;;;30.20;99.90;;;;;;5052157;28;20269;-72
2021/08/13 09:30:31;;;;;;;8.13;7.13;;;30.10;99.90;;;;;;5050034;28;20218;-72
2021/08/13 09:33:00;;;;;;;7.28;6.63;;;30.10;99.90;;;;;;5048478;28;20576;-73
2021/08/13 09:35:32;;;;;;;7.47;6.70;;;30.20;99.90;;;;;;5050078;28;20295;-73
2021/08/13 09:38:01;;;;;;;7.60;6.90;;;30.30;99.90;;;;;;5051749;28;20229;-73
2021/08/13 09:40:29;;;;;;;7.95;7.32;;;30.50;99.90;;;;;;5047225;28;20233;-73
2021/08/13 09:43:02;;;;;;;7.65;7.05;;;30.50;99.90;;;;;;5054900;28;20239;-73
2021/08/13 09:45:30;;;;;;;7.70;7.03;;;30.40;99.90;;;;;;5048248;28;20241;-73
2021/08/13 09:47:57;;;;;;;8.93;6.95;;;30.50;99.90;;;;;;5044930;28;20250;-74
2021/08/13 09:50:38;;;;;;;7.05;6.35;;;30.60;99.90;;;;;;5048669;28;20237;-72
2021/08/13 09:53:11;;;;;;;7.38;6.65;;;30.70;99.90;;;;;;5048621;28;20222;-73
2021/08/13 09:55:39;;;;;;;7.80;7.10;;;30.90;99.90;;;;;;5051614;28;20279;-73
2021/08/13 09:58:08;;;;;;;7.72;6.97;;;31.00;99.90;;;;;;5052806;28;20237;-73
2021/08/13 10:00:44;;;;;;;7.20;6.38;;;31.00;99.90;;;;;;5052623;28;20229;-72
2021/08/13 10:03:11;;;;;;;7.80;7.07;;;31.30;99.90;;;;;;5047237;28;20325;-73
2021/08/13 10:05:39;;;;;;;6.68;6.13;;;31.50;99.90;;;;;;5049321;28;20233;-72
2021/08/13 10:08:07;;;;;;;6.80;6.20;;;31.60;99.90;;;;;;5050135;28;20316;-74
2021/08/13 10:10:37;;;;;;;8.82;7.05;;;31.50;99.90;;;;;;5053278;28;20222;-71
2021/08/13 10:13:06;;;;;;;8.55;7.38;;;31.60;99.90;;;;;;5048530;28;20226;-72
2021/08/13 10:15:35;;;;;;;7.65;6.90;;;31.60;99.90;;;;;;5050427;28;20229;-73
2021/08/13 10:18:04;;;;;;;7.03;6.50;;;31.50;99.90;;;;;;5048003;28;20644;-71
2021/08/13 10:20:34;;;;;;;7.78;6.78;;;31.60;99.90;;;;;;5045507;28;20225;-74
2021/08/13 10:23:01;;;;;;;6.95;6.35;;;31.60;99.90;;;;;;5049614;28;20234;-73
2021/08/13 10:25:29;;;;;;;6.95;6.35;;;31.50;99.90;;;;;;5047656;28;20237;-74
2021/08/13 10:27:57;;;;;;;7.15;6.55;;;31.40;99.90;;;;;;5042737;28;20699;-74
2021/08/13 10:30:25;;;;;;;7.03;6.07;;;31.50;99.90;;;;;;5050355;28;20236;-74
2021/08/13 10:32:56;;;;;;;6.93;6.32;;;31.80;99.90;;;;;;5048660;28;20261;-72
2021/08/13 10:35:29;;;;;;;7.20;6.50;;;31.70;99.90;;;;;;5042067;28;20217;-72
2021/08/13 10:37:57;;;;;;;6.65;6.05;;;31.70;99.90;;;;;;5041020;28;20218;-73
2021/08/13 10:40:26;;;;;;;6.30;5.80;;;31.70;99.90;;;;;;5040154;28;20226;-73
2021/08/13 10:42:55;;;;;;;6.35;5.85;;;31.70;99.90;;;;;;5035169;28;20703;-73
2021/08/13 10:45:27;;;;;;;7.78;6.00;;;31.80;99.90;;;;;;5047648;28;20233;-74
2021/08/13 10:48:01;;;;;;;7.85;7.05;;;31.80;99.90;;;;;;5050395;28;20620;-70
2021/08/13 10:50:29;;;;;;;7.50;6.80;;;31.80;99.90;;;;;;5046587;28;20224;-73
2021/08/13 10:52:57;;;;;;;8.52;6.88;;;31.80;99.90;;;;;;5047669;28;20411;-73
2021/08/13 10:55:46;;;;;;;6.78;6.18;;;31.80;99.90;;;;;;5050616;28;20696;-70
2021/08/13 10:58:13;;;;;;;7.40;6.63;;;32.00;99.90;;;;;;5044591;28;20222;-70
2021/08/13 11:01:07;;;;;;;6.45;5.65;;;32.10;99.90;;;;;;5031260;28;20224;-71
2021/08/13 11:03:35;;;;;;;6.53;6.03;;;31.90;99.90;;;;;;5048607;28;20527;-71
2021/08/13 11:06:03;;;;;;;6.40;5.90;;;31.60;99.90;;;;;;5050746;28;20786;-71
2021/08/13 11:08:55;;;;;;;6.30;5.70;;;31.60;99.90;;;;;;5049178;28;20296;-71
2021/08/13 11:11:22;;;;;;;5.82;5.32;;;31.90;99.90;;;;;;5053168;28;20771;-70
2021/08/13 11:13:49;;;;;;;7.03;6.32;;;32.00;99.90;;;;;;5044935;28;20241;-70
2021/08/13 11:16:37;;;;;;;6.03;5.53;;;32.10;99.90;;;;;;5051843;28;20228;-70
2021/08/13 11:19:07;;;;;;;6.28;5.78;;;32.30;99.90;;;;;;5046632;28;20210;-70
2021/08/13 11:21:36;;;;;;;6.85;5.38;;;32.40;99.90;;;;;;5053889;28;20875;-70
2021/08/13 11:24:05;;;;;;;6.13;5.63;;;32.40;99.90;;;;;;5048020;28;20222;-70
2021/08/13 11:27:10;;;;;;;6.28;5.78;;;32.60;99.90;;;;;;5051183;28;20604;-70
2021/08/13 11:29:45;;;;;;;7.10;5.75;;;32.70;99.90;;;;;;5044617;28;20226;-71
2021/08/13 11:32:31;;;;;;;6.25;5.75;;;32.70;99.90;;;;;;5045227;28;20218;-72
2021/08/13 11:35:01;;;;;;;5.47;5.03;;;32.60;99.90;;;;;;5043706;28;20218;-71
2021/08/13 11:37:48;;;;;;;7.03;6.30;;;32.60;99.90;;;;;;5045190;28;20671;-71
2021/08/13 11:40:49;;;;;;;6.97;6.03;;;32.70;99.90;;;;;;5043053;28;20229;-70
2021/08/13 11:43:22;;;;;;;5.82;5.32;;;32.70;99.90;;;;;;5043735;28;20253;-71
2021/08/13 11:45:50;;;;;;;6.05;5.55;;;32.80;99.90;;;;;;5048038;28;20222;-71
2021/08/13 11:48:20;;;;;;;5.85;5.22;;;32.70;99.90;;;;;;5050680;28;20263;-71
2021/08/13 11:50:47;;;;;;;7.90;5.65;;;32.60;99.90;;;;;;5051051;28;20279;-71
2021/08/13 11:53:14;;;;;;;6.07;5.57;;;32.60;99.90;;;;;;5046408;28;20233;-69
2021/08/13 11:55:45;;;;;;;6.32;5.63;;;32.60;99.90;;;;;;5048057;28;20230;-72
2021/08/13 11:58:25;;;;;;;6.25;5.75;;;32.60;99.90;;;;;;5048123;28;21116;-71
2021/08/13 12:01:03;;;;;;;5.80;5.30;;;32.80;99.90;;;;;;5045076;28;20300;-71
2021/08/13 12:03:31;;;;;;;6.22;5.72;;;32.90;99.90;;;;;;5046527;28;20219;-72
2021/08/13 12:05:59;;;;;;;6.10;5.50;;;33.10;99.90;;;;;;5050076;28;20221;-71
2021/08/13 12:08:26;;;;;;;6.70;6.10;;;33.20;99.90;;;;;;5045219;28;20248;-71
2021/08/13 12:10:53;;;;;;;5.65;5.15;;;33.30;99.90;;;;;;5043774;28;20702;-71
2021/08/13 12:13:22;;;;;;;6.20;5.65;;;33.30;99.90;;;;;;5050056;28;20234;-71
2021/08/13 12:15:49;;;;;;;5.10;4.72;;;33.30;99.90;;;;;;5050957;28;20242;-70
2021/08/13 12:18:17;;;;;;;5.63;5.13;;;33.30;99.90;;;;;;5056959;28;20218;-71
2021/08/13 12:20:49;;;;;;;5.70;5.20;;;33.60;99.90;;;;;;5052105;28;20217;-71
2021/08/13 12:23:19;;;;;;;6.22;5.72;;;33.80;99.90;;;;;;5052306;28;20249;-71
2021/08/13 12:25:46;;;;;;;5.80;5.18;;;33.90;99.90;;;;;;5052747;28;20230;-72
2021/08/13 12:28:16;;;;;;;5.38;4.88;;;33.60;99.90;;;;;;5051487;28;20222;-70
2021/08/13 12:30:43;;;;;;;6.75;6.10;;;33.50;99.90;;;;;;5050241;28;20230;-70
2021/08/13 12:33:20;;;;;;;8.60;5.75;;;33.50;99.90;;;;;;5049226;28;20603;-71
2021/08/13 12:35:49;;;;;;;6.50;6.00;;;33.40;99.90;;;;;;5049400;28;20225;-71
2021/08/13 12:38:17;;;;;;;5.65;5.20;;;33.00;99.90;;;;;;5048996;28;20252;-72
2021/08/13 12:40:47;;;;;;;6.25;5.55;;;33.00;99.90;;;;;;5050654;28;20322;-71
2021/08/13 12:43:15;;;;;;;5.50;5.03;;;33.30;99.90;;;;;;5040444;28;20241;-71
2021/08/13 12:45:42;;;;;;;4.97;4.57;;;33.50;99.90;;;;;;5045679;28;20707;-70
2021/08/13 12:48:11;;;;;;;5.55;5.00;;;33.50;99.90;;;;;;5042127;28;20240;-72
2021/08/13 12:50:38;;;;;;;5.60;5.10;;;33.40;99.90;;;;;;5044790;28;20279;-70
2021/08/13 12:53:12;;;;;;;5.15;4.75;;;33.10;99.90;;;;;;5047817;28;20218;-71
2021/08/13 12:55:43;;;;;;;5.15;4.75;;;32.90;99.90;;;;;;5046815;28;20366;-71
2021/08/13 12:58:11;;;;;;;4.85;4.47;;;32.90;99.90;;;;;;5049256;28;20242;-72
2021/08/13 13:00:38;;;;;;;5.90;5.40;;;32.70;99.90;;;;;;5041846;28;20222;-71
2021/08/13 13:03:15;;;;;;;5.80;5.22;;;32.40;99.90;;;;;;5044165;28;20227;-72
2021/08/13 13:06:01;;;;;;;5.28;4.88;;;32.10;99.90;;;;;;5045893;28;20222;-71
2021/08/13 13:08:44;;;;;;;5.40;4.90;;;31.90;99.90;;;;;;5028519;28;20210;-72